Harbor Emperor — WCY6430 — position and weather

sailwx.info

Track history (hours):
 
Tides and Currents Weather Stations Pressure Air Temp Water Temp Dewpoint Dewpoint Depression Visibility Wind Speed Wind Dir Waves Ship Positions

Harbor Emperor

Owner: BLUE & GOLD FLEET, SAN FRANCISCO, CA. More information available from US FCC via Universal Licensing System and Coast Guard Vessel Documentation Center.

Last reported at 2018-Feb-19 01:31 UTC. Time now 2018-Feb-19 14:17 UTC.
Position N 37°49' W 122°25'.

Length 31 m.

Type: Passenger vessel. MMSI: 366985270.

Date/timePositionNaut miles runAvg speedWind from/ knotsBaromVisibWave heightAir tempDewpointWater temp
2018-Feb-19 01:31N 37°49' W 122°25'0 0.0
2018-Feb-19 01:30N 37°49' W 122°25'2 4.1
2018-Feb-19 01:00N 37°49' W 122°27'2 4.1
2018-Feb-19 00:31N 37°49' W 122°25'1 1.7
2018-Feb-19 00:00N 37°49' W 122°25'2 2.9
2018-Feb-18 23:30N 37°49' W 122°27'2 3.4
2018-Feb-18 22:58N 37°49' W 122°25'0 0.0
2018-Feb-18 22:30N 37°49' W 122°25'1 1.1
2018-Feb-18 22:00N 37°49' W 122°24'2 3.9
2018-Feb-18 21:30N 37°49' W 122°27'2 3.9
2018-Feb-18 21:00N 37°49' W 122°25'1 2.8
2018-Feb-18 20:30N 37°50' W 122°25'2 3.0
2018-Feb-18 20:00N 37°50' W 122°27'3 5.1
2018-Feb-18 19:31N 37°49' W 122°25'1 1.1
2018-Feb-18 19:01N 37°49' W 122°24'2 4.2
2018-Feb-18 18:30N 37°49' W 122°27'2 3.2
2018-Feb-18 18:00N 37°49' W 122°25'0 0.0
2018-Feb-18 17:30N 37°49' W 122°25'0 0.0
2018-Feb-17 01:37N 37°49' W 122°25'0 0.1
2018-Feb-17 01:31N 37°49' W 122°25'3 5.2
2018-Feb-17 01:00N 37°49' W 122°28'3 5.2
2018-Feb-17 00:30N 37°49' W 122°25'1 1.8
2018-Feb-17 00:00N 37°49' W 122°25'2 4.5
2018-Feb-16 23:30N 37°49' W 122°28'2 4.8
2018-Feb-16 23:00N 37°49' W 122°25'0 0.0
2018-Feb-16 22:29N 37°49' W 122°25'1 1.5
2018-Feb-16 22:00N 37°49' W 122°25'2 4.5
2018-Feb-16 21:30N 37°49' W 122°28'2 4.6
2018-Feb-16 21:00N 37°49' W 122°25'1 1.9
2018-Feb-16 20:30N 37°49' W 122°25'2 4.6
2018-Feb-16 20:00N 37°49' W 122°28'3 5.3
2018-Feb-16 19:30N 37°49' W 122°25'1 2.0
2018-Feb-16 19:00N 37°50' W 122°25'1 2.6
2018-Feb-16 18:30N 37°49' W 122°26'1 2.8
2018-Feb-16 18:00N 37°49' W 122°25'0 0.0
2018-Feb-16 17:30N 37°49' W 122°25'0 0.0
2018-Feb-16 01:30N 37°49' W 122°25'2 4.3
2018-Feb-16 01:00N 37°49' W 122°27'2 4.2
2018-Feb-16 00:31N 37°49' W 122°25'1 1.8
2018-Feb-16 00:00N 37°49' W 122°25'2 3.9
2018-Feb-15 23:30N 37°49' W 122°27'2 4.2
2018-Feb-15 23:00N 37°49' W 122°25'0 0.0
2018-Feb-15 22:29N 37°49' W 122°25'1 1.9
2018-Feb-15 22:00N 37°49' W 122°25'2 4.5
2018-Feb-15 21:30N 37°49' W 122°27'2 4.5
2018-Feb-15 21:01N 37°49' W 122°25'1 2.8
2018-Feb-15 20:30N 37°50' W 122°25'1 3.0
2018-Feb-15 20:01N 37°50' W 122°27'3 5.1
2018-Feb-15 19:30N 37°49' W 122°25'1 1.4
2018-Feb-15 19:01N 37°49' W 122°25'2 4.1
2018-Feb-15 18:30N 37°49' W 122°27'2 3.9
2018-Feb-15 18:01N 37°49' W 122°25'0 0.0
2018-Feb-15 02:54N 37°49' W 122°25'1 2.7
2018-Feb-15 02:30N 37°48' W 122°23'2 4.7
2018-Feb-15 02:01N 37°50' W 122°26'1 2.3
2018-Feb-15 01:30N 37°49' W 122°26'1 2.6
2018-Feb-15 01:00N 37°49' W 122°25'0 0.0
2018-Feb-15 00:30N 37°49' W 122°25'0 0.0
2018-Feb-15 00:00N 37°49' W 122°25'0 0.0
2018-Feb-14 23:30N 37°49' W 122°25'0 0.0
2018-Feb-14 22:58N 37°49' W 122°25'0 0.0
2018-Feb-14 22:28N 37°49' W 122°25'1 3.2
2018-Feb-14 22:00N 37°50' W 122°26'1 1.9
2018-Feb-14 21:30N 37°49' W 122°27'2 3.0
2018-Feb-14 21:00N 37°49' W 122°25'1 2.3
2018-Feb-14 20:30N 37°50' W 122°25'2 4.3
2018-Feb-14 20:00N 37°50' W 122°28'3 5.7
2018-Feb-14 19:30N 37°49' W 122°25'1 1.2
2018-Feb-14 19:01N 37°49' W 122°25'2 3.8
2018-Feb-14 18:30N 37°49' W 122°27'2 3.5
2018-Feb-14 17:59N 37°49' W 122°25'0 0.0
2018-Feb-14 17:28N 37°49' W 122°25'0 0.0
2018-Feb-14 16:59N 37°49' W 122°25'0 0.0
2018-Feb-14 16:30N 37°49' W 122°25'0 0.0
2018-Feb-14 15:54N 37°49' W 122°25'0 0.0
2018-Feb-14 15:30N 37°49' W 122°25'0 0.0
2018-Feb-14 15:00N 37°49' W 122°25'0 0.0
2018-Feb-14 14:30N 37°49' W 122°25'0 0.0
2018-Feb-14 14:00N 37°49' W 122°25'0 0.0
2018-Feb-14 13:30N 37°49' W 122°25'0 0.0
2018-Feb-14 13:00N 37°49' W 122°25'0 0.0
2018-Feb-14 12:30N 37°49' W 122°25'0 0.0
2018-Feb-14 12:00N 37°49' W 122°25'0 0.0
2018-Feb-14 11:30N 37°49' W 122°25'0 0.0
2018-Feb-14 11:00N 37°49' W 122°25'0 0.0
2018-Feb-14 10:30N 37°49' W 122°25'0 0.0
2018-Feb-14 10:00N 37°49' W 122°25'0 0.0
2018-Feb-14 09:30N 37°49' W 122°25'0 0.0
2018-Feb-14 09:00N 37°49' W 122°25'0 0.0
2018-Feb-14 08:30N 37°49' W 122°25'0 0.0
2018-Feb-14 08:00N 37°49' W 122°25'0 0.0
2018-Feb-14 07:30N 37°49' W 122°25'0 0.0
2018-Feb-14 07:00N 37°49' W 122°25'0 0.0
2018-Feb-14 06:30N 37°49' W 122°25'0 0.0
2018-Feb-14 06:00N 37°49' W 122°25'0 0.0
2018-Feb-14 05:30N 37°49' W 122°25'0 0.0
2018-Feb-14 05:00N 37°49' W 122°25'0 0.0
2018-Feb-14 04:30N 37°49' W 122°25'0 0.0
2018-Feb-14 04:00N 37°49' W 122°25'0 0.0
2018-Feb-14 03:30N 37°49' W 122°25'0 0.0
2018-Feb-14 03:00N 37°49' W 122°25'0 0.0
2018-Feb-14 02:30N 37°49' W 122°25'0 0.0
2018-Feb-14 01:57N 37°49' W 122°25'0 0.0
2018-Feb-14 01:30N 37°49' W 122°25'2 4.5
2018-Feb-14 01:00N 37°49' W 122°27'2 4.3
2018-Feb-14 00:29N 37°49' W 122°25'1 1.6
2018-Feb-14 00:00N 37°49' W 122°25'2 4.0
2018-Feb-13 23:30N 37°49' W 122°27'2 3.9
2018-Feb-13 22:56N 37°49' W 122°25'0 0.0
2018-Feb-13 22:29N 37°49' W 122°25'1 1.9
2018-Feb-13 22:00N 37°49' W 122°25'2 4.5
2018-Feb-13 21:30N 37°49' W 122°28'2 4.5
2018-Feb-13 20:58N 37°49' W 122°25'1 2.0
2018-Feb-13 20:30N 37°49' W 122°25'2 3.9
2018-Feb-13 20:00N 37°50' W 122°27'2 4.4
2018-Feb-13 19:28N 37°49' W 122°25'0 0.8
2018-Feb-13 19:00N 37°49' W 122°24'3 5.4
2018-Feb-13 18:30N 37°49' W 122°28'2 4.5
2018-Feb-13 17:58N 37°49' W 122°25'0 0.0
2018-Feb-13 17:28N 37°49' W 122°25'0 0.0
2018-Feb-13 16:55N 37°49' W 122°25'0 0.0
2018-Feb-13 16:28N 37°49' W 122°25'0 0.0
2018-Feb-13 15:58N 37°49' W 122°25'0 0.0
2018-Feb-13 15:28N 37°49' W 122°25'0 0.0
2018-Feb-13 14:58N 37°49' W 122°25'0 0.0
2018-Feb-13 14:28N 37°49' W 122°25'0 0.0
2018-Feb-13 13:55N 37°49' W 122°25'0 0.0
2018-Feb-13 13:28N 37°49' W 122°25'0 0.0
2018-Feb-13 12:58N 37°49' W 122°25'0 0.0
2018-Feb-13 12:28N 37°49' W 122°25'0 0.0
2018-Feb-13 11:49N 37°49' W 122°25'0 0.0
2018-Feb-13 11:28N 37°49' W 122°25'0 0.0
2018-Feb-13 10:58N 37°49' W 122°25'0 0.0
2018-Feb-13 10:28N 37°49' W 122°25'0 0.0
2018-Feb-13 09:55N 37°49' W 122°25'0 0.0
2018-Feb-13 09:28N 37°49' W 122°25'0 0.0
2018-Feb-13 08:58N 37°49' W 122°25'0 0.0
2018-Feb-13 08:28N 37°49' W 122°25'0 0.0
2018-Feb-13 07:55N 37°49' W 122°25'0 0.0
2018-Feb-13 07:28N 37°49' W 122°25'0 0.0
2018-Feb-13 06:58N 37°49' W 122°25'0 0.0
2018-Feb-13 06:28N 37°49' W 122°25'0 0.0
2018-Feb-13 05:58N 37°49' W 122°25'0 0.0
2018-Feb-13 05:28N 37°49' W 122°25'0 0.0
2018-Feb-13 04:58N 37°49' W 122°25'0 0.0
2018-Feb-13 04:28N 37°49' W 122°25'0 0.0
2018-Feb-13 03:58N 37°49' W 122°25'0 0.0
2018-Feb-13 03:28N 37°49' W 122°25'0 0.0
2018-Feb-13 02:58N 37°49' W 122°25'0 0.0
2018-Feb-13 02:28N 37°49' W 122°25'0 0.0
2018-Feb-13 01:55N 37°49' W 122°25'0 0.0
2018-Feb-13 01:28N 37°49' W 122°25'2 4.2
2018-Feb-13 01:00N 37°50' W 122°27'2 3.9
2018-Feb-13 00:30N 37°49' W 122°25'0 0.7
2018-Feb-13 00:00N 37°49' W 122°25'2 4.8
2018-Feb-12 23:30N 37°49' W 122°28'2 4.8
2018-Feb-12 23:00N 37°49' W 122°25'0 0.0
2018-Feb-12 22:30N 37°49' W 122°25'1 1.4
2018-Feb-12 22:00N 37°49' W 122°25'2 4.8
2018-Feb-12 21:30N 37°49' W 122°28'2 4.9
2018-Feb-12 21:00N 37°49' W 122°25'1 1.7
2018-Feb-12 20:30N 37°49' W 122°25'2 3.5
2018-Feb-12 20:00N 37°50' W 122°27'2 4.3
2018-Feb-12 19:30N 37°49' W 122°25'0 0.9
2018-Feb-12 19:00N 37°49' W 122°25'2 5.0
2018-Feb-12 18:30N 37°49' W 122°28'2 4.8
2018-Feb-12 18:00N 37°49' W 122°25'0 0.0
2018-Feb-12 01:28N 37°49' W 122°25'2 4.5
2018-Feb-12 01:00N 37°49' W 122°27'2 4.2
2018-Feb-12 00:30N 37°49' W 122°25'1 1.6
2018-Feb-12 00:00N 37°49' W 122°25'1 3.0
2018-Feb-11 23:30N 37°49' W 122°27'2 3.8
2018-Feb-11 23:00N 37°49' W 122°25'0 0.0
2018-Feb-11 22:30N 37°49' W 122°25'1 1.5
2018-Feb-11 22:01N 37°49' W 122°25'2 4.8
2018-Feb-11 21:30N 37°49' W 122°27'2 4.5
2018-Feb-11 21:00N 37°49' W 122°25'1 2.6
2018-Feb-11 20:30N 37°50' W 122°25'1 2.9
2018-Feb-11 20:00N 37°50' W 122°27'2 4.8
2018-Feb-11 19:30N 37°49' W 122°25'1 1.8
2018-Feb-11 19:01N 37°49' W 122°25'2 4.2
2018-Feb-11 18:30N 37°49' W 122°27'2 4.1
2018-Feb-11 18:00N 37°49' W 122°25'0 0.0
2018-Feb-11 17:30N 37°49' W 122°25'0 0.0
2018-Feb-11 01:27N 37°49' W 122°25'2 5.0
2018-Feb-11 01:00N 37°49' W 122°27'2 4.4
2018-Feb-11 00:30N 37°49' W 122°25'1 2.1
2018-Feb-11 00:00N 37°50' W 122°25'2 3.2
2018-Feb-10 23:30N 37°49' W 122°27'2 3.4
2018-Feb-10 23:00N 37°49' W 122°25'0 0.0
2018-Feb-10 22:30N 37°49' W 122°25'1 1.3
2018-Feb-10 22:00N 37°49' W 122°25'2 4.9
2018-Feb-10 21:30N 37°49' W 122°28'2 4.7
2018-Feb-10 21:00N 37°49' W 122°25'1 2.7
2018-Feb-10 20:30N 37°50' W 122°25'2 3.2
2018-Feb-10 20:00N 37°50' W 122°27'3 5.2
2018-Feb-10 19:30N 37°49' W 122°25'1 1.5
2018-Feb-10 19:00N 37°49' W 122°25'2 4.9
2018-Feb-10 18:30N 37°49' W 122°28'2 4.8
2018-Feb-10 18:00N 37°49' W 122°25'0 0.0
2018-Feb-10 01:27N 37°49' W 122°25'2 4.2
2018-Feb-10 01:00N 37°49' W 122°27'2 3.7
2018-Feb-10 00:30N 37°49' W 122°25'1 1.1
2018-Feb-10 00:01N 37°49' W 122°24'3 5.0
2018-Feb-09 23:30N 37°49' W 122°27'2 4.4
2018-Feb-09 23:00N 37°49' W 122°25'0 0.0
2018-Feb-09 22:46N 37°49' W 122°25'1 0.8
2018-Feb-09 22:01N 37°49' W 122°25'2 1.1
2018-Feb-09 20:00N 37°50' W 122°27'2 2.0
2018-Feb-09 19:01N 37°50' W 122°25'2 3.6
2018-Feb-09 18:31N 37°49' W 122°27'  
Track history (hours):
 
Tides and Currents Weather Stations Pressure Air Temp Water Temp Dewpoint Dewpoint Depression Visibility Wind Speed Wind Dir Waves Ship Positions

Harbor Emperor

Owner: BLUE & GOLD FLEET, SAN FRANCISCO, CA. More information available from US FCC via Universal Licensing System and Coast Guard Vessel Documentation Center.

Last reported at 2018-Feb-19 01:31 UTC. Time now 2018-Feb-19 14:17 UTC.
Position N 37°49' W 122°25'.

Length 31 m.

Type: Passenger vessel. MMSI: 366985270.

Date/timePositionNaut miles runAvg speedWind from/ knotsBaromVisibWave heightAir tempDewpointWater temp
2018-Feb-19 01:31N 37°49' W 122°25'0 0.0
2018-Feb-19 01:30N 37°49' W 122°25'2 4.1
2018-Feb-19 01:00N 37°49' W 122°27'2 4.1
2018-Feb-19 00:31N 37°49' W 122°25'1 1.7
2018-Feb-19 00:00N 37°49' W 122°25'2 2.9
2018-Feb-18 23:30N 37°49' W 122°27'2 3.4
2018-Feb-18 22:58N 37°49' W 122°25'0 0.0
2018-Feb-18 22:30N 37°49' W 122°25'1 1.1
2018-Feb-18 22:00N 37°49' W 122°24'2 3.9
2018-Feb-18 21:30N 37°49' W 122°27'2 3.9
2018-Feb-18 21:00N 37°49' W 122°25'1 2.8
2018-Feb-18 20:30N 37°50' W 122°25'2 3.0
2018-Feb-18 20:00N 37°50' W 122°27'3 5.1
2018-Feb-18 19:31N 37°49' W 122°25'1 1.1
2018-Feb-18 19:01N 37°49' W 122°24'2 4.2
2018-Feb-18 18:30N 37°49' W 122°27'2 3.2
2018-Feb-18 18:00N 37°49' W 122°25'0 0.0
2018-Feb-18 17:30N 37°49' W 122°25'0 0.0
2018-Feb-17 01:37N 37°49' W 122°25'0 0.1
2018-Feb-17 01:31N 37°49' W 122°25'3 5.2
2018-Feb-17 01:00N 37°49' W 122°28'3 5.2
2018-Feb-17 00:30N 37°49' W 122°25'1 1.8
2018-Feb-17 00:00N 37°49' W 122°25'2 4.5
2018-Feb-16 23:30N 37°49' W 122°28'2 4.8
2018-Feb-16 23:00N 37°49' W 122°25'0 0.0
2018-Feb-16 22:29N 37°49' W 122°25'1 1.5
2018-Feb-16 22:00N 37°49' W 122°25'2 4.5
2018-Feb-16 21:30N 37°49' W 122°28'2 4.6
2018-Feb-16 21:00N 37°49' W 122°25'1 1.9
2018-Feb-16 20:30N 37°49' W 122°25'2 4.6
2018-Feb-16 20:00N 37°49' W 122°28'3 5.3
2018-Feb-16 19:30N 37°49' W 122°25'1 2.0
2018-Feb-16 19:00N 37°50' W 122°25'1 2.6
2018-Feb-16 18:30N 37°49' W 122°26'1 2.8
2018-Feb-16 18:00N 37°49' W 122°25'0 0.0
2018-Feb-16 17:30N 37°49' W 122°25'0 0.0
2018-Feb-16 01:30N 37°49' W 122°25'2 4.3
2018-Feb-16 01:00N 37°49' W 122°27'2 4.2
2018-Feb-16 00:31N 37°49' W 122°25'1 1.8
2018-Feb-16 00:00N 37°49' W 122°25'2 3.9
2018-Feb-15 23:30N 37°49' W 122°27'2 4.2
2018-Feb-15 23:00N 37°49' W 122°25'0 0.0
2018-Feb-15 22:29N 37°49' W 122°25'1 1.9
2018-Feb-15 22:00N 37°49' W 122°25'2 4.5
2018-Feb-15 21:30N 37°49' W 122°27'2 4.5
2018-Feb-15 21:01N 37°49' W 122°25'1 2.8
2018-Feb-15 20:30N 37°50' W 122°25'1 3.0
2018-Feb-15 20:01N 37°50' W 122°27'3 5.1
2018-Feb-15 19:30N 37°49' W 122°25'1 1.4
2018-Feb-15 19:01N 37°49' W 122°25'2 4.1
2018-Feb-15 18:30N 37°49' W 122°27'2 3.9
2018-Feb-15 18:01N 37°49' W 122°25'0 0.0
2018-Feb-15 02:54N 37°49' W 122°25'1 2.7
2018-Feb-15 02:30N 37°48' W 122°23'2 4.7
2018-Feb-15 02:01N 37°50' W 122°26'1 2.3
2018-Feb-15 01:30N 37°49' W 122°26'1 2.6
2018-Feb-15 01:00N 37°49' W 122°25'0 0.0
2018-Feb-15 00:30N 37°49' W 122°25'0 0.0
2018-Feb-15 00:00N 37°49' W 122°25'0 0.0
2018-Feb-14 23:30N 37°49' W 122°25'0 0.0
2018-Feb-14 22:58N 37°49' W 122°25'0 0.0
2018-Feb-14 22:28N 37°49' W 122°25'1 3.2
2018-Feb-14 22:00N 37°50' W 122°26'1 1.9
2018-Feb-14 21:30N 37°49' W 122°27'2 3.0
2018-Feb-14 21:00N 37°49' W 122°25'1 2.3
2018-Feb-14 20:30N 37°50' W 122°25'2 4.3
2018-Feb-14 20:00N 37°50' W 122°28'3 5.7
2018-Feb-14 19:30N 37°49' W 122°25'1 1.2
2018-Feb-14 19:01N 37°49' W 122°25'2 3.8
2018-Feb-14 18:30N 37°49' W 122°27'2 3.5
2018-Feb-14 17:59N 37°49' W 122°25'0 0.0
2018-Feb-14 17:28N 37°49' W 122°25'0 0.0
2018-Feb-14 16:59N 37°49' W 122°25'0 0.0
2018-Feb-14 16:30N 37°49' W 122°25'0 0.0
2018-Feb-14 15:54N 37°49' W 122°25'0 0.0
2018-Feb-14 15:30N 37°49' W 122°25'0 0.0
2018-Feb-14 15:00N 37°49' W 122°25'0 0.0
2018-Feb-14 14:30N 37°49' W 122°25'0 0.0
2018-Feb-14 14:00N 37°49' W 122°25'0 0.0
2018-Feb-14 13:30N 37°49' W 122°25'0 0.0
2018-Feb-14 13:00N 37°49' W 122°25'0 0.0
2018-Feb-14 12:30N 37°49' W 122°25'0 0.0
2018-Feb-14 12:00N 37°49' W 122°25'0 0.0
2018-Feb-14 11:30N 37°49' W 122°25'0 0.0
2018-Feb-14 11:00N 37°49' W 122°25'0 0.0
2018-Feb-14 10:30N 37°49' W 122°25'0 0.0
2018-Feb-14 10:00N 37°49' W 122°25'0 0.0
2018-Feb-14 09:30N 37°49' W 122°25'0 0.0
2018-Feb-14 09:00N 37°49' W 122°25'0 0.0
2018-Feb-14 08:30N 37°49' W 122°25'0 0.0
2018-Feb-14 08:00N 37°49' W 122°25'0 0.0
2018-Feb-14 07:30N 37°49' W 122°25'0 0.0
2018-Feb-14 07:00N 37°49' W 122°25'0 0.0
2018-Feb-14 06:30N 37°49' W 122°25'0 0.0
2018-Feb-14 06:00N 37°49' W 122°25'0 0.0
2018-Feb-14 05:30N 37°49' W 122°25'0 0.0
2018-Feb-14 05:00N 37°49' W 122°25'0 0.0
2018-Feb-14 04:30N 37°49' W 122°25'0 0.0
2018-Feb-14 04:00N 37°49' W 122°25'0 0.0
2018-Feb-14 03:30N 37°49' W 122°25'0 0.0
2018-Feb-14 03:00N 37°49' W 122°25'0 0.0
2018-Feb-14 02:30N 37°49' W 122°25'0 0.0
2018-Feb-14 01:57N 37°49' W 122°25'0 0.0
2018-Feb-14 01:30N 37°49' W 122°25'2 4.5
2018-Feb-14 01:00N 37°49' W 122°27'2 4.3
2018-Feb-14 00:29N 37°49' W 122°25'1 1.6
2018-Feb-14 00:00N 37°49' W 122°25'2 4.0
2018-Feb-13 23:30N 37°49' W 122°27'2 3.9
2018-Feb-13 22:56N 37°49' W 122°25'0 0.0
2018-Feb-13 22:29N 37°49' W 122°25'1 1.9
2018-Feb-13 22:00N 37°49' W 122°25'2 4.5
2018-Feb-13 21:30N 37°49' W 122°28'2 4.5
2018-Feb-13 20:58N 37°49' W 122°25'1 2.0
2018-Feb-13 20:30N 37°49' W 122°25'2 3.9
2018-Feb-13 20:00N 37°50' W 122°27'2 4.4
2018-Feb-13 19:28N 37°49' W 122°25'0 0.8
2018-Feb-13 19:00N 37°49' W 122°24'3 5.4
2018-Feb-13 18:30N 37°49' W 122°28'2 4.5
2018-Feb-13 17:58N 37°49' W 122°25'0 0.0
2018-Feb-13 17:28N 37°49' W 122°25'0 0.0
2018-Feb-13 16:55N 37°49' W 122°25'0 0.0
2018-Feb-13 16:28N 37°49' W 122°25'0 0.0
2018-Feb-13 15:58N 37°49' W 122°25'0 0.0
2018-Feb-13 15:28N 37°49' W 122°25'0 0.0
2018-Feb-13 14:58N 37°49' W 122°25'0 0.0
2018-Feb-13 14:28N 37°49' W 122°25'0 0.0
2018-Feb-13 13:55N 37°49' W 122°25'0 0.0
2018-Feb-13 13:28N 37°49' W 122°25'0 0.0
2018-Feb-13 12:58N 37°49' W 122°25'0 0.0
2018-Feb-13 12:28N 37°49' W 122°25'0 0.0
2018-Feb-13 11:49N 37°49' W 122°25'0 0.0
2018-Feb-13 11:28N 37°49' W 122°25'0 0.0
2018-Feb-13 10:58N 37°49' W 122°25'0 0.0
2018-Feb-13 10:28N 37°49' W 122°25'0 0.0
2018-Feb-13 09:55N 37°49' W 122°25'0 0.0
2018-Feb-13 09:28N 37°49' W 122°25'0 0.0
2018-Feb-13 08:58N 37°49' W 122°25'0 0.0
2018-Feb-13 08:28N 37°49' W 122°25'0 0.0
2018-Feb-13 07:55N 37°49' W 122°25'0 0.0
2018-Feb-13 07:28N 37°49' W 122°25'0 0.0
2018-Feb-13 06:58N 37°49' W 122°25'0 0.0
2018-Feb-13 06:28N 37°49' W 122°25'0 0.0
2018-Feb-13 05:58N 37°49' W 122°25'0 0.0
2018-Feb-13 05:28N 37°49' W 122°25'0 0.0
2018-Feb-13 04:58N 37°49' W 122°25'0 0.0
2018-Feb-13 04:28N 37°49' W 122°25'0 0.0
2018-Feb-13 03:58N 37°49' W 122°25'0 0.0
2018-Feb-13 03:28N 37°49' W 122°25'0 0.0
2018-Feb-13 02:58N 37°49' W 122°25'0 0.0
2018-Feb-13 02:28N 37°49' W 122°25'0 0.0
2018-Feb-13 01:55N 37°49' W 122°25'0 0.0
2018-Feb-13 01:28N 37°49' W 122°25'2 4.2
2018-Feb-13 01:00N 37°50' W 122°27'2 3.9
2018-Feb-13 00:30N 37°49' W 122°25'0 0.7
2018-Feb-13 00:00N 37°49' W 122°25'2 4.8
2018-Feb-12 23:30N 37°49' W 122°28'2 4.8
2018-Feb-12 23:00N 37°49' W 122°25'0 0.0
2018-Feb-12 22:30N 37°49' W 122°25'1 1.4
2018-Feb-12 22:00N 37°49' W 122°25'2 4.8
2018-Feb-12 21:30N 37°49' W 122°28'2 4.9
2018-Feb-12 21:00N 37°49' W 122°25'1 1.7
2018-Feb-12 20:30N 37°49' W 122°25'2 3.5
2018-Feb-12 20:00N 37°50' W 122°27'2 4.3
2018-Feb-12 19:30N 37°49' W 122°25'0 0.9
2018-Feb-12 19:00N 37°49' W 122°25'2 5.0
2018-Feb-12 18:30N 37°49' W 122°28'2 4.8
2018-Feb-12 18:00N 37°49' W 122°25'0 0.0
2018-Feb-12 01:28N 37°49' W 122°25'2 4.5
2018-Feb-12 01:00N 37°49' W 122°27'2 4.2
2018-Feb-12 00:30N 37°49' W 122°25'1 1.6
2018-Feb-12 00:00N 37°49' W 122°25'1 3.0
2018-Feb-11 23:30N 37°49' W 122°27'2 3.8
2018-Feb-11 23:00N 37°49' W 122°25'0 0.0
2018-Feb-11 22:30N 37°49' W 122°25'1 1.5
2018-Feb-11 22:01N 37°49' W 122°25'2 4.8
2018-Feb-11 21:30N 37°49' W 122°27'2 4.5
2018-Feb-11 21:00N 37°49' W 122°25'1 2.6
2018-Feb-11 20:30N 37°50' W 122°25'1 2.9
2018-Feb-11 20:00N 37°50' W 122°27'2 4.8
2018-Feb-11 19:30N 37°49' W 122°25'1 1.8
2018-Feb-11 19:01N 37°49' W 122°25'2 4.2
2018-Feb-11 18:30N 37°49' W 122°27'2 4.1
2018-Feb-11 18:00N 37°49' W 122°25'0 0.0
2018-Feb-11 17:30N 37°49' W 122°25'0 0.0
2018-Feb-11 01:27N 37°49' W 122°25'2 5.0
2018-Feb-11 01:00N 37°49' W 122°27'2 4.4
2018-Feb-11 00:30N 37°49' W 122°25'1 2.1
2018-Feb-11 00:00N 37°50' W 122°25'2 3.2
2018-Feb-10 23:30N 37°49' W 122°27'2 3.4
2018-Feb-10 23:00N 37°49' W 122°25'0 0.0
2018-Feb-10 22:30N 37°49' W 122°25'1 1.3
2018-Feb-10 22:00N 37°49' W 122°25'2 4.9
2018-Feb-10 21:30N 37°49' W 122°28'2 4.7
2018-Feb-10 21:00N 37°49' W 122°25'1 2.7
2018-Feb-10 20:30N 37°50' W 122°25'2 3.2
2018-Feb-10 20:00N 37°50' W 122°27'3 5.2
2018-Feb-10 19:30N 37°49' W 122°25'1 1.5
2018-Feb-10 19:00N 37°49' W 122°25'2 4.9
2018-Feb-10 18:30N 37°49' W 122°28'2 4.8
2018-Feb-10 18:00N 37°49' W 122°25'0 0.0
2018-Feb-10 01:27N 37°49' W 122°25'2 4.2
2018-Feb-10 01:00N 37°49' W 122°27'2 3.7
2018-Feb-10 00:30N 37°49' W 122°25'1 1.1
2018-Feb-10 00:01N 37°49' W 122°24'3 5.0
2018-Feb-09 23:30N 37°49' W 122°27'2 4.4
2018-Feb-09 23:00N 37°49' W 122°25'0 0.0
2018-Feb-09 22:46N 37°49' W 122°25'1 0.8
2018-Feb-09 22:01N 37°49' W 122°25'2 1.1
2018-Feb-09 20:00N 37°50' W 122°27'2 2.0
2018-Feb-09 19:01N 37°50' W 122°25'2 3.6
2018-Feb-09 18:31N 37°49' W 122°27'  

Dump ship's entire track history